Time;durP1;ratioP1;P1;durP2;ratioP2;P2;SDS_P1;SDS_P2;PMS_P1;PMS_P2;Temp;Humidity;BMP_temperature;BMP_pressure;BME280_temperature;BME280_humidity;BME280_pressure;Samples;Min_cycle;Max_cycle;Signal;HPM_P1;HPM_P2
2024/04/11 00:02:12;;;;;;;0.20;0.20;;;;;;;-139.19;100.00;56970.53;5482423;26;20017;-61
2024/04/11 00:05:36;;;;;;;5.78;0.90;;;;;;;-139.19;100.00;56970.53;5489678;26;20002;-61
2024/04/11 00:09:00;;;;;;;0.17;0.17;;;;;;;-139.19;100.00;56970.53;5488728;26;20431;-61
2024/04/11 00:12:24;;;;;;;0.20;0.20;;;;;;;-139.19;100.00;56970.53;5462533;26;19999;-60
2024/04/11 00:15:53;;;;;;;0.75;0.38;;;;;;;-139.19;100.00;56970.53;5484410;26;20048;-60
2024/04/11 00:19:17;;;;;;;0.25;0.20;;;;;;;-139.19;100.00;56970.53;5462076;26;20022;-61
2024/04/11 00:22:41;;;;;;;0.10;0.10;;;;;;;-139.19;100.00;56970.53;5461936;26;20002;-60
2024/04/11 00:26:05;;;;;;;0.00;0.00;;;;;;;-139.19;100.00;56970.53;5469377;26;20455;-61
2024/04/11 00:29:29;;;;;;;0.20;0.20;;;;;;;-139.19;100.00;56970.53;5453917;26;20327;-61
2024/04/11 00:32:53;;;;;;;0.15;0.15;;;;;;;-139.19;100.00;56970.53;5481716;26;19998;-61
2024/04/11 00:36:17;;;;;;;0.10;0.10;;;;;;;-139.19;100.00;56970.53;5488831;26;20013;-61
2024/04/11 00:38:55;;;;;;;0.30;0.30;;;;;;;-139.19;100.00;56970.53;5454334;26;20021;-61
2024/04/11 00:42:19;;;;;;;0.35;0.35;;;;;;;-139.19;100.00;56970.53;5470090;26;20423;-61
2024/04/11 00:45:47;;;;;;;0.75;0.75;;;;;;;-139.19;100.00;56970.53;5483575;26;20438;-61
2024/04/11 00:49:11;;;;;;;0.10;0.10;;;;;;;-139.19;100.00;56970.53;5463630;26;19998;-61
2024/04/11 00:52:36;;;;;;;0.10;0.10;;;;;;;-139.19;100.00;56970.53;5490140;26;20449;-61
2024/04/11 00:56:03;;;;;;;0.10;0.10;;;;;;;-139.19;100.00;56970.53;5471568;26;20013;-61
2024/04/11 00:59:28;;;;;;;3.30;1.13;;;;;;;-139.19;100.00;56970.53;5453500;26;20067;-60
2024/04/11 01:02:52;;;;;;;0.85;0.50;;;;;;;-139.19;100.00;56970.53;5482174;26;19994;-61
2024/04/11 01:06:17;;;;;;;0.30;0.30;;;;;;;-139.19;100.00;56970.53;5458041;26;20013;-61
2024/04/11 01:09:45;;;;;;;0.60;0.60;;;;;;;-139.19;100.00;56970.53;5453732;26;20014;-60
2024/04/11 01:13:10;;;;;;;0.10;0.10;;;;;;;-139.19;100.00;56970.53;5468921;26;20312;-60
2024/04/11 01:16:35;;;;;;;0.40;0.40;;;;;;;-139.19;100.00;56970.53;5469079;26;20380;-61
2024/04/11 01:19:59;;;;;;;0.75;0.30;;;;;;;-139.19;100.00;56970.53;5486447;26;20427;-61
2024/04/11 01:23:23;;;;;;;0.10;0.10;;;;;;;-139.19;100.00;56970.53;5456694;26;20003;-61
2024/04/11 01:26:47;;;;;;;0.10;0.10;;;;;;;-139.19;100.00;56970.53;5471985;26;20014;-60
2024/04/11 01:30:11;;;;;;;1.77;0.60;;;;;;;-139.19;100.00;56970.53;5471998;26;20405;-60
2024/04/11 01:33:38;;;;;;;0.10;0.10;;;;;;;-139.19;100.00;56970.53;5480353;26;20005;-61
2024/04/11 01:37:01;;;;;;;0.20;0.20;;;;;;;-139.19;100.00;56970.53;5481895;26;20002;-61
2024/04/11 01:40:29;;;;;;;0.10;0.10;;;;;;;-139.19;100.00;56970.53;5490937;26;20017;-61
2024/04/11 01:43:53;;;;;;;0.52;0.52;;;;;;;-139.19;100.00;56970.53;5482077;26;19999;-61
2024/04/11 01:47:17;;;;;;;0.10;0.10;;;;;;;-139.19;100.00;56970.53;5455009;26;19999;-61
2024/04/11 01:50:41;;;;;;;0.10;0.10;;;;;;;-139.19;100.00;56970.53;5471155;26;20202;-61
2024/04/11 01:54:05;;;;;;;0.10;0.10;;;;;;;-139.19;100.00;56970.53;5460847;26;20312;-61
2024/04/11 01:57:29;;;;;;;0.10;0.10;;;;;;;-139.19;100.00;56970.53;5477366;26;19998;-61
2024/04/11 02:00:53;;;;;;;0.10;0.10;;;;;;;-139.19;100.00;56970.53;5472593;26;20354;-61
2024/04/11 02:04:17;;;;;;;0.10;0.10;;;;;;;-139.19;100.00;56970.53;5456507;26;20459;-61
2024/04/11 02:07:42;;;;;;;0.25;0.25;;;;;;;-139.19;100.00;56970.53;5456112;26;20323;-61
2024/04/11 02:11:06;;;;;;;1.75;1.17;;;;;;;-139.19;100.00;56970.53;5456337;26;20010;-61
2024/04/11 02:14:30;;;;;;;0.30;0.30;;;;;;;-139.19;100.00;56970.53;5456265;26;20003;-60
2024/04/11 02:17:55;;;;;;;0.35;0.25;;;;;;;-139.19;100.00;56970.53;5478854;26;20315;-63
2024/04/11 02:21:19;;;;;;;0.10;0.10;;;;;;;-139.19;100.00;56970.53;5459242;26;20026;-60
2024/04/11 02:24:43;;;;;;;0.20;0.20;;;;;;;-139.19;100.00;56970.53;5486028;26;20012;-61
2024/04/11 02:28:07;;;;;;;0.20;0.20;;;;;;;-139.19;100.00;56970.53;5478255;26;20009;-61
2024/04/11 02:31:34;;;;;;;0.10;0.10;;;;;;;-139.19;100.00;56970.53;5464620;26;20002;-60
2024/04/11 02:35:05;;;;;;;0.30;0.30;;;;;;;-139.19;100.00;56970.53;5456681;26;20447;-60
2024/04/11 02:38:28;;;;;;;0.40;0.40;;;;;;;-139.19;100.00;56970.53;5480611;26;20006;-60
2024/04/11 02:41:54;;;;;;;0.10;0.10;;;;;;;-139.19;100.00;56970.53;5460294;26;20039;-61
2024/04/11 02:45:18;;;;;;;0.25;0.25;;;;;;;-139.19;100.00;56970.53;5456045;26;20052;-61
2024/04/11 02:48:45;;;;;;;0.10;0.10;;;;;;;-139.19;100.00;56970.53;5455652;26;20080;-60
2024/04/11 02:52:09;;;;;;;0.10;0.10;;;;;;;-139.19;100.00;56970.53;5455650;26;20466;-60
2024/04/11 02:55:34;;;;;;;0.10;0.10;;;;;;;-139.19;100.00;56970.53;5455246;26;20439;-60
2024/04/11 02:58:58;;;;;;;0.10;0.10;;;;;;;-139.19;100.00;56970.53;5459884;26;20358;-61
2024/04/11 03:02:24;;;;;;;0.10;0.10;;;;;;;-139.19;100.00;56970.53;5490841;26;20050;-61
2024/04/11 03:05:50;;;;;;;0.20;0.20;;;;;;;-139.19;100.00;56970.53;5490650;26;19998;-61
2024/04/11 03:09:14;;;;;;;0.17;0.17;;;;;;;-139.19;100.00;56970.53;5472483;26;20003;-61
2024/04/11 03:12:38;;;;;;;1.27;1.17;;;;;;;-139.19;100.00;56970.53;5490548;26;20002;-60
2024/04/11 03:16:01;;;;;;;0.10;0.10;;;;;;;-139.19;100.00;56970.53;5491348;26;20002;-61
2024/04/11 03:18:28;;;;;;;0.20;0.20;;;;;;;14.60;100.00;43489.22;5488861;26;20002;-60
2024/04/11 03:21:17;;;;;;;0.43;0.40;;;;;;;14.60;53.35;99657.84;5462096;26;20434;-60
2024/04/11 03:23:43;;;;;;;0.10;0.10;;;;;;;-139.19;100.00;56970.53;5489925;26;19998;-61
2024/04/11 03:26:16;;;;;;;0.10;0.10;;;;;;;-139.19;100.00;56970.53;5481757;26;20427;-61
2024/04/11 03:28:42;;;;;;;;;;;;;;;-139.19;100.00;56970.53;5485590;26;20081;-64
2024/04/11 03:31:08;;;;;;;0.10;0.10;;;;;;;-139.19;100.00;56970.53;5490172;26;19924;-64
2024/04/11 03:33:47;;;;;;;1.38;1.27;;;;;;;-139.19;100.00;56970.53;5479122;26;19998;-64
2024/04/11 03:37:00;;;;;;;0.10;0.10;;;;;;;-139.19;100.00;56970.53;5456118;26;20038;-64
2024/04/11 03:39:52;;;;;;;0.10;0.10;;;;;;;-139.19;100.00;56970.53;5469372;26;20462;-64
2024/04/11 03:42:21;;;;;;;0.20;0.20;;;;;;;-139.19;100.00;56970.53;5474418;26;19998;-64
2024/04/11 03:45:41;;;;;;;0.10;0.10;;;;;;;-139.19;100.00;56970.53;5470891;26;20017;-64
2024/04/11 03:48:09;;;;;;;0.63;0.63;;;;;;;-139.19;100.00;56970.53;5483824;26;20330;-64
2024/04/11 03:50:48;;;;;;;0.10;0.10;;;;;;;-139.19;100.00;56970.53;5460201;26;20038;-64
2024/04/11 03:53:13;;;;;;;0.10;0.10;;;;;;;1.87;97.72;99980.34;5469695;26;20002;-64
2024/04/11 03:55:41;;;;;;;0.10;0.10;;;;;;;-139.19;100.00;56970.53;5485187;26;19998;-64
2024/04/11 03:58:07;;;;;;;0.10;0.10;;;;;;;-139.19;100.00;56970.53;5454148;26;20307;-64
2024/04/11 04:00:32;;;;;;;0.25;0.25;;;;;;;-139.19;100.00;56970.53;5482448;26;20017;-64
2024/04/11 04:02:58;;;;;;;0.35;0.35;;;;;;;1.87;97.72;99980.34;5471712;26;20006;-64
2024/04/11 04:05:24;;;;;;;0.10;0.10;;;;;;;-139.19;100.00;56970.53;5477542;26;20017;-64
2024/04/11 04:07:50;;;;;;;0.35;0.35;;;;;;;-139.19;100.00;56970.53;5459099;26;20444;-64
2024/04/11 04:10:15;;;;;;;0.30;0.30;;;;;;;-139.19;100.00;56970.53;5459147;26;20010;-64
2024/04/11 04:12:41;;;;;;;0.22;0.17;;;;;;;-139.19;100.00;56970.53;5466009;26;20007;-64
2024/04/11 04:15:08;;;;;;;0.10;0.10;;;;;;;-139.19;100.00;56970.53;5454201;26;20006;-64
2024/04/11 04:17:33;;;;;;;0.25;0.25;;;;;;;-139.19;100.00;56970.53;5467694;26;20006;-64
2024/04/11 04:19:58;;;;;;;0.10;0.10;;;;;;;-139.19;100.00;56970.53;5469246;26;20010;-64
2024/04/11 04:22:24;;;;;;;0.10;0.10;;;;;;;-139.19;100.00;56970.53;5485138;26;20005;-64
2024/04/11 04:25:54;;;;;;;0.10;0.10;;;;;;;-139.19;100.00;56970.53;5482902;26;19998;-64
2024/04/11 04:29:19;;;;;;;0.20;0.20;;;;;;;-139.19;100.00;56970.53;5470321;26;20009;-64
2024/04/11 04:31:49;;;;;;;0.10;0.10;;;;;;;-139.19;100.00;56970.53;5453864;26;20005;-64
2024/04/11 04:34:15;;;;;;;0.20;0.20;;;;;;;-139.19;100.00;56970.53;5469505;26;20426;-64
2024/04/11 04:36:41;;;;;;;0.10;0.10;;;;;;;-139.19;100.00;56970.53;5473903;26;20009;-64
2024/04/11 04:39:07;;;;;;;0.10;0.10;;;;;;;-139.19;100.00;56970.53;5462946;26;19994;-60
2024/04/11 04:41:34;;;;;;;0.20;0.20;;;;;;;-139.19;100.00;56970.53;5477921;26;20005;-61
2024/04/11 04:44:00;;;;;;;0.47;0.47;;;;;;;-139.19;100.00;56970.53;5475453;26;20002;-61
2024/04/11 04:46:32;;;;;;;1.35;0.80;;;;;;;-139.19;100.00;56970.53;5489776;26;20426;-61
2024/04/11 04:49:00;;;;;;;0.10;0.10;;;;;;;-139.19;100.00;56970.53;5489939;26;19994;-61
2024/04/11 04:51:26;;;;;;;0.30;0.30;;;;;;;-139.19;100.00;56970.53;5489858;26;20067;-61
2024/04/11 04:53:53;;;;;;;0.10;0.10;;;;;;;-139.19;100.00;56970.53;5489611;26;20330;-60
2024/04/11 04:56:19;;;;;;;0.20;0.20;;;;;;;-139.19;100.00;56970.53;5489914;26;20375;-60
2024/04/11 04:58:45;;;;;;;0.10;0.10;;;;;;;-139.19;100.00;56970.53;5489833;26;20011;-61
2024/04/11 05:01:11;;;;;;;0.10;0.10;;;;;;;-139.19;100.00;56970.53;5490136;26;20008;-60
2024/04/11 05:03:40;;;;;;;0.10;0.10;;;;;;;-139.19;100.00;56970.53;5490149;26;19990;-61
2024/04/11 05:06:11;;;;;;;0.10;0.10;;;;;;;-139.19;100.00;56970.53;5489935;26;20026;-61
2024/04/11 05:08:36;;;;;;;0.40;0.40;;;;;;;-139.19;100.00;56970.53;5490034;26;19994;-60
2024/04/11 05:11:12;;;;;;;0.20;0.20;;;;;;;-139.19;100.00;56970.53;5489982;26;20002;-61
2024/04/11 05:13:39;;;;;;;0.65;0.65;;;;;;;-139.19;100.00;56970.53;5489810;26;20025;-60
2024/04/11 05:16:06;;;;;;;0.10;0.10;;;;;;;-139.19;100.00;56970.53;5489898;26;19994;-61
2024/04/11 05:18:39;;;;;;;0.10;0.10;;;;;;;-139.19;100.00;56970.53;5489794;26;20447;-61
2024/04/11 05:21:11;;;;;;;0.10;0.10;;;;;;;-139.19;100.00;56970.53;5489772;26;19998;-61
2024/04/11 05:23:38;;;;;;;0.22;0.22;;;;;;;-139.19;100.00;56970.53;5489838;26;20009;-60
2024/04/11 05:26:09;;;;;;;0.10;0.10;;;;;;;-139.19;100.00;56970.53;5489708;26;20001;-61
2024/04/11 05:28:35;;;;;;;0.10;0.10;;;;;;;-139.19;100.00;56970.53;5489664;26;20430;-61
2024/04/11 05:31:04;;;;;;;0.47;0.47;;;;;;;-139.19;100.00;56970.53;5489605;26;19998;-61
2024/04/11 05:33:38;;;;;;;0.10;0.10;;;;;;;-139.19;100.00;56970.53;5489456;26;19994;-61
2024/04/11 05:36:06;;;;;;;1.02;0.45;;;;;;;-139.19;100.00;56970.53;5489470;26;20001;-61
2024/04/11 05:38:32;;;;;;;0.10;0.10;;;;;;;-139.19;100.00;56970.53;5489496;26;19998;-61
2024/04/11 05:40:58;;;;;;;0.13;0.13;;;;;;;-139.19;100.00;56970.53;5489437;26;19990;-61
2024/04/11 05:43:23;;;;;;;0.17;0.17;;;;;;;-139.19;100.00;56970.53;5489382;26;20001;-61
2024/04/11 05:45:49;;;;;;;0.60;0.60;;;;;;;-139.19;100.00;56970.53;5489286;26;20067;-61
2024/04/11 05:48:14;;;;;;;0.10;0.10;;;;;;;-139.19;100.00;56970.53;5489383;26;19994;-64
2024/04/11 05:50:39;;;;;;;0.13;0.13;;;;;;;-139.19;100.00;56970.53;5489280;26;19990;-64
2024/04/11 05:53:06;;;;;;;0.20;0.20;;;;;;;-139.19;100.00;56970.53;5488810;26;20005;-64
2024/04/11 05:55:32;;;;;;;0.45;0.40;;;;;;;-139.19;100.00;56970.53;5488815;26;19994;-64
2024/04/11 05:57:58;;;;;;;0.10;0.10;;;;;;;-139.19;100.00;56970.53;5488822;26;20062;-64
2024/04/11 06:00:29;;;;;;;0.25;0.25;;;;;;;-139.19;100.00;56970.53;5489030;26;20396;-64
2024/04/11 06:02:55;;;;;;;0.40;0.40;;;;;;;-139.19;100.00;56970.53;5489036;26;20005;-64
2024/04/11 06:05:20;;;;;;;0.10;0.10;;;;;;;-139.19;100.00;56970.53;5490058;26;20009;-64
2024/04/11 06:07:46;;;;;;;0.45;0.45;;;;;;;-139.19;100.00;56970.53;5492849;26;20434;-64
2024/04/11 06:10:11;;;;;;;0.65;0.65;;;;;;;-139.19;100.00;56970.53;5492761;26;20067;-64
2024/04/11 06:12:37;;;;;;;0.32;0.28;;;;;;;-139.19;100.00;56970.53;5492587;26;20002;-64
2024/04/11 06:15:03;;;;;;;0.22;0.22;;;;;;;-139.19;100.00;56970.53;5492632;26;20399;-64
2024/04/11 06:17:28;;;;;;;0.17;0.17;;;;;;;-139.19;100.00;56970.53;5492629;26;20001;-64
2024/04/11 06:19:55;;;;;;;0.22;0.22;;;;;;;-139.19;100.00;56970.53;5492563;26;19994;-65
2024/04/11 06:22:21;;;;;;;0.13;0.13;;;;;;;-139.19;100.00;56970.53;5492555;26;20084;-65
2024/04/11 06:24:46;;;;;;;0.10;0.10;;;;;;;-139.19;100.00;56970.53;5492554;26;20002;-65
2024/04/11 06:27:16;;;;;;;0.73;0.73;;;;;;;-139.19;100.00;56970.53;5492509;26;20439;-65
2024/04/11 06:29:42;;;;;;;0.10;0.10;;;;;;;-139.19;100.00;56970.53;5492475;26;20479;-65
2024/04/11 06:32:12;;;;;;;0.13;0.13;;;;;;;-139.19;100.00;56970.53;5492313;26;19996;-65
2024/04/11 06:34:41;;;;;;;0.32;0.32;;;;;;;-139.19;100.00;56970.53;5492387;26;19994;-64
2024/04/11 06:37:13;;;;;;;0.10;0.10;;;;;;;-139.19;100.00;56970.53;5492381;26;20009;-65
2024/04/11 06:39:41;;;;;;;0.13;0.13;;;;;;;-139.19;100.00;56970.53;5492355;26;20458;-65
2024/04/11 06:42:13;;;;;;;1.27;0.88;;;;;;;-139.19;100.00;56970.53;5492270;26;20422;-65
2024/04/11 06:44:45;;;;;;;0.20;0.20;;;;;;;-139.19;100.00;56970.53;5492286;26;20005;-65
2024/04/11 06:47:12;;;;;;;0.52;0.52;;;;;;;-139.19;100.00;56970.53;5492238;26;20322;-65
2024/04/11 06:49:39;;;;;;;0.10;0.10;;;;;;;-139.19;100.00;56970.53;5492276;26;20009;-65
2024/04/11 06:52:05;;;;;;;0.45;0.45;;;;;;;-139.19;100.00;56970.53;5492013;26;20004;-65
2024/04/11 06:54:30;;;;;;;0.73;0.55;;;;;;;-139.19;100.00;56970.53;5491818;26;20438;-64
2024/04/11 06:56:58;;;;;;;0.20;0.20;;;;;;;-139.19;100.00;56970.53;5491613;26;19994;-63
2024/04/11 06:59:24;;;;;;;0.13;0.13;;;;;;;-139.19;100.00;56970.53;5491724;26;20446;-62
2024/04/11 07:01:51;;;;;;;1.45;1.27;;;;;;;-139.19;100.00;56970.53;5491994;26;20005;-62
2024/04/11 07:04:17;;;;;;;0.75;0.70;;;;;;;-139.19;100.00;56970.53;5491887;26;20002;-62
2024/04/11 07:06:46;;;;;;;0.35;0.35;;;;;;;-139.19;100.00;56970.53;5491919;26;20034;-62
2024/04/11 07:09:11;;;;;;;0.30;0.30;;;;;;;-139.19;100.00;56970.53;5491882;26;20070;-62
2024/04/11 07:11:40;;;;;;;2.05;1.20;;;;;;;-139.19;100.00;56970.53;5491818;26;19998;-63
2024/04/11 07:14:11;;;;;;;1.85;0.63;;;;;;;-139.19;100.00;56970.53;5491821;26;19994;-63
2024/04/11 07:16:52;;;;;;;0.60;0.60;;;;;;;-139.19;100.00;56970.53;5491822;26;20342;-63
2024/04/11 07:19:17;;;;;;;0.40;0.40;;;;;;;-139.19;100.00;56970.53;5491769;26;19998;-63
2024/04/11 07:21:43;;;;;;;0.57;0.57;;;;;;;-139.19;100.00;56970.53;5491720;26;20009;-63
2024/04/11 07:24:09;;;;;;;0.50;0.50;;;;;;;-139.19;100.00;56970.53;5491735;26;20422;-63
2024/04/11 07:26:36;;;;;;;1.50;1.02;;;;;;;-139.19;100.00;56970.53;5491708;26;19998;-63
2024/04/11 07:29:04;;;;;;;0.98;0.40;;;;;;;-139.19;100.00;56970.53;5491621;26;19995;-63
2024/04/11 07:31:31;;;;;;;0.40;0.40;;;;;;;-139.19;100.00;56970.53;5491535;26;20467;-62
2024/04/11 07:34:02;;;;;;;1.20;0.88;;;;;;;-139.19;100.00;56970.53;5491457;26;20022;-63
2024/04/11 07:36:30;;;;;;;0.40;0.40;;;;;;;-139.19;100.00;56970.53;5491497;26;19998;-63
2024/04/11 07:38:57;;;;;;;0.57;0.57;;;;;;;-139.19;100.00;56970.53;5491419;26;20430;-63
2024/04/11 07:41:44;;;;;;;1.30;0.85;;;;;;;-139.19;100.00;56970.53;5491396;26;19994;-63
2024/04/11 07:44:11;;;;;;;0.30;0.30;;;;;;;-139.19;100.00;56970.53;5491440;26;20461;-63
2024/04/11 07:46:37;;;;;;;1.90;1.17;;;;;;;-139.19;100.00;56970.53;5491290;26;19998;-63
2024/04/11 07:49:07;;;;;;;2.03;0.68;;;;;;;-139.19;100.00;56970.53;5491292;26;19994;-63
2024/04/11 07:51:33;;;;;;;0.68;0.68;;;;;;;-139.19;100.00;56970.53;5491217;26;20438;-63
2024/04/11 07:53:59;;;;;;;0.20;0.20;;;;;;;-139.19;100.00;56970.53;5491243;26;20326;-63
2024/04/11 07:56:28;;;;;;;0.60;0.45;;;;;;;-139.19;100.00;56970.53;5491173;26;20008;-63
2024/04/11 07:58:55;;;;;;;0.40;0.30;;;;;;;-139.19;100.00;56970.53;5491051;26;19994;-63
2024/04/11 08:01:31;;;;;;;0.30;0.30;;;;;;;-139.19;100.00;56970.53;5491093;26;20005;-63
2024/04/11 08:03:58;;;;;;;0.43;0.30;;;;;;;-139.19;100.00;56970.53;5490803;26;20065;-63
2024/04/11 08:06:24;;;;;;;0.38;0.38;;;;;;;-139.19;100.00;56970.53;5490676;26;20009;-63
2024/04/11 08:08:51;;;;;;;0.30;0.30;;;;;;;-139.19;100.00;56970.53;5490844;26;20423;-63
2024/04/11 08:11:16;;;;;;;0.50;0.45;;;;;;;-139.19;100.00;56970.53;5490671;26;19994;-63
2024/04/11 08:13:43;;;;;;;0.20;0.20;;;;;;;-139.19;100.00;56970.53;5490494;26;19994;-63
2024/04/11 08:16:10;;;;;;;0.60;0.52;;;;;;;-139.19;100.00;56970.53;5490567;26;20000;-63
2024/04/11 08:18:37;;;;;;;0.52;0.50;;;;;;;-139.19;100.00;56970.53;5490516;26;20006;-63
2024/04/11 08:21:07;;;;;;;0.10;0.10;;;;;;;-139.19;100.00;56970.53;5490496;26;20005;-63
2024/04/11 08:23:36;;;;;;;1.07;0.63;;;;;;;-139.19;100.00;56970.53;5490556;26;19990;-63
2024/04/11 08:26:01;;;;;;;0.32;0.32;;;;;;;-139.19;100.00;56970.53;5490448;26;20013;-63
2024/04/11 08:28:27;;;;;;;1.27;0.47;;;;;;;-139.19;100.00;56970.53;5489679;26;20529;-63
2024/04/11 08:30:53;;;;;;;0.17;0.13;;;;;;;-139.19;100.00;56970.53;5490375;26;20065;-63
2024/04/11 08:33:20;;;;;;;0.10;0.10;;;;;;;-139.19;100.00;56970.53;5490254;26;19994;-63
2024/04/11 08:35:52;;;;;;;0.10;0.10;;;;;;;-139.19;100.00;56970.53;5490201;26;20030;-63
2024/04/11 08:38:22;;;;;;;0.77;0.43;;;;;;;-139.19;100.00;56970.53;5490297;26;20002;-63
2024/04/11 08:40:49;;;;;;;0.43;0.30;;;;;;;-139.19;100.00;56970.53;5490232;26;20018;-63
2024/04/11 08:43:16;;;;;;;0.70;0.47;;;;;;;-139.19;100.00;56970.53;5490183;26;20018;-63
2024/04/11 08:45:44;;;;;;;0.10;0.10;;;;;;;-139.19;100.00;56970.53;5490159;26;20061;-63
2024/04/11 08:48:11;;;;;;;0.22;0.22;;;;;;;-139.19;100.00;56970.53;5490028;26;20074;-63
2024/04/11 08:50:43;;;;;;;2.88;0.70;;;;;;;-139.19;100.00;56970.53;5490099;26;20315;-63
2024/04/11 08:53:10;;;;;;;0.38;0.35;;;;;;;-139.19;100.00;56970.53;5489934;26;20326;-63
2024/04/11 08:55:36;;;;;;;0.25;0.25;;;;;;;-139.19;100.00;56970.53;5490039;26;20450;-63
2024/04/11 08:58:02;;;;;;;0.20;0.20;;;;;;;-139.19;100.00;56970.53;5490225;26;20407;-63
2024/04/11 09:00:29;;;;;;;0.10;0.10;;;;;;;-139.19;100.00;56970.53;5490198;26;20005;-63
2024/04/11 09:02:58;;;;;;;0.85;0.50;;;;;;;-139.19;100.00;56970.53;5489773;26;19994;-63
2024/04/11 09:05:24;;;;;;;0.32;0.32;;;;;;;-139.19;100.00;56970.53;5489672;26;20022;-63
2024/04/11 09:07:51;;;;;;;0.50;0.38;;;;;;;-139.19;100.00;56970.53;5489832;26;20005;-62
2024/04/11 09:10:19;;;;;;;0.65;0.40;;;;;;;-139.19;100.00;56970.53;5489624;26;20006;-62
2024/04/11 09:12:46;;;;;;;0.30;0.30;;;;;;;-139.19;100.00;56970.53;5489585;26;20495;-62
2024/04/11 09:15:15;;;;;;;0.52;0.30;;;;;;;-139.19;100.00;56970.53;5489644;26;20030;-63
2024/04/11 09:17:45;;;;;;;0.10;0.10;;;;;;;-139.19;100.00;56970.53;5489625;26;19990;-63
2024/04/11 09:20:19;;;;;;;0.20;0.20;;;;;;;-139.19;100.00;56970.53;5489565;26;19998;-63
2024/04/11 09:22:55;;;;;;;0.20;0.20;;;;;;;-139.19;100.00;56970.53;5489445;26;20423;-63
2024/04/11 09:25:26;;;;;;;0.20;0.20;;;;;;;-139.19;100.00;56970.53;5489413;26;20063;-63
2024/04/11 09:27:58;;;;;;;1.70;0.47;;;;;;;-139.19;100.00;56970.53;5489400;26;20063;-62
2024/04/11 09:30:29;;;;;;;0.10;0.10;;;;;;;-139.19;100.00;56970.53;5489308;26;20030;-62
2024/04/11 09:32:56;;;;;;;1.33;0.38;;;;;;;-139.19;100.00;56970.53;5489201;26;19998;-62
2024/04/11 09:35:22;;;;;;;0.80;0.32;;;;;;;-139.19;100.00;56970.53;5489233;26;19998;-62
2024/04/11 09:37:54;;;;;;;0.00;0.00;;;;;;;-139.19;100.00;56970.53;5489145;26;20005;-62
2024/04/11 09:40:22;;;;;;;0.60;0.35;;;;;;;-139.19;100.00;56970.53;5490227;26;20463;-62
2024/04/11 09:42:53;;;;;;;0.10;0.10;;;;;;;-139.19;100.00;56970.53;5492801;26;20005;-62
2024/04/11 09:45:19;;;;;;;0.10;0.10;;;;;;;-139.19;100.00;56970.53;5492799;26;19998;-61
2024/04/11 09:47:47;;;;;;;0.45;0.30;;;;;;;-139.19;100.00;56970.53;5492846;26;20009;-62
2024/04/11 09:50:16;;;;;;;2.42;0.85;;;;;;;-139.19;100.00;56970.53;5492730;26;19994;-62
2024/04/11 09:52:44;;;;;;;0.40;0.20;;;;;;;-139.19;100.00;56970.53;5492605;26;20402;-62
2024/04/11 09:55:15;;;;;;;0.45;0.43;;;;;;;-139.19;100.00;56970.53;5492669;26;20027;-61
2024/04/11 09:57:44;;;;;;;0.80;0.38;;;;;;;-139.19;100.00;56970.53;5492698;26;20013;-62
2024/04/11 10:00:22;;;;;;;0.90;0.45;;;;;;;-139.19;100.00;56970.53;5492846;26;20009;-62
2024/04/11 10:02:52;;;;;;;0.20;0.20;;;;;;;-139.19;100.00;56970.53;5492821;26;20418;-62
2024/04/11 10:05:19;;;;;;;0.28;0.28;;;;;;;-139.19;100.00;56970.53;5492746;26;20555;-62
2024/04/11 10:07:57;;;;;;;0.10;0.10;;;;;;;-139.19;100.00;56970.53;5492726;26;20001;-62
2024/04/11 10:10:27;;;;;;;0.40;0.30;;;;;;;-139.19;100.00;56970.53;5492739;26;20092;-62
2024/04/11 10:12:54;;;;;;;0.10;0.10;;;;;;;-139.19;100.00;56970.53;5492627;26;20016;-62
2024/04/11 10:15:21;;;;;;;1.25;0.80;;;;;;;-139.19;100.00;56970.53;5492627;26;20001;-63
2024/04/11 10:18:09;;;;;;;0.10;0.10;;;;;;;-139.19;100.00;56970.53;5492638;26;20001;-62
2024/04/11 10:21:05;;;;;;;0.55;0.43;;;;;;;-139.19;100.00;56970.53;5492577;26;20445;-62
2024/04/11 10:23:32;;;;;;;0.25;0.20;;;;;;;-139.19;100.00;56970.53;5477395;26;20001;-62
2024/04/11 10:26:02;;;;;;;0.55;0.30;;;;;;;-139.19;100.00;56970.53;5492554;26;20436;-63
2024/04/11 10:28:51;;;;;;;0.32;0.20;;;;;;;-139.19;100.00;56970.53;5492628;26;20005;-62
2024/04/11 10:31:19;;;;;;;0.25;0.22;;;;;;;-139.19;100.00;56970.53;5492469;26;20020;-62
2024/04/11 10:33:53;;;;;;;0.17;0.17;;;;;;;-139.19;100.00;56970.53;5492362;26;20339;-62
2024/04/11 10:36:21;;;;;;;0.22;0.20;;;;;;;-139.19;100.00;56970.53;5492401;26;20005;-62
2024/04/11 10:38:52;;;;;;;1.02;0.30;;;;;;;-139.19;100.00;56970.53;5492336;26;19994;-62
2024/04/11 10:41:19;;;;;;;0.93;0.50;;;;;;;-139.19;100.00;56970.53;5492405;26;20066;-62
2024/04/11 10:43:46;;;;;;;2.08;0.90;;;;;;;-139.19;100.00;56970.53;5492238;26;19990;-62
2024/04/11 10:46:12;;;;;;;0.32;0.22;;;;;;;-139.19;100.00;56970.53;5492224;26;20009;-62
2024/04/11 10:48:40;;;;;;;0.30;0.20;;;;;;;-139.19;100.00;56970.53;5492224;26;20009;-62
2024/04/11 10:52:10;;;;;;;0.95;0.63;;;;;;;-139.19;100.00;56970.53;5491727;26;20006;-62
2024/04/11 10:55:37;;;;;;;0.10;0.10;;;;;;;-139.19;100.00;56970.53;5492098;26;20027;-62
2024/04/11 10:59:06;;;;;;;0.28;0.28;;;;;;;-139.19;100.00;56970.53;5491714;26;20333;-62
2024/04/11 11:02:32;;;;;;;0.10;0.10;;;;;;;-139.19;100.00;56970.53;5492015;26;20035;-62
2024/04/11 11:05:58;;;;;;;0.47;0.47;;;;;;;-139.19;100.00;56970.53;5491850;26;19994;-61
2024/04/11 11:09:23;;;;;;;1.13;0.63;;;;;;;-139.19;100.00;56970.53;5491893;26;20026;-62
2024/04/11 11:12:49;;;;;;;0.10;0.10;;;;;;;-139.19;100.00;56970.53;5491765;26;19990;-62
2024/04/11 11:16:21;;;;;;;0.00;0.00;;;;;;;-139.19;100.00;56970.53;5491825;26;20303;-62
2024/04/11 11:19:49;;;;;;;0.15;0.10;;;;;;;-139.19;100.00;56970.53;5492081;26;20005;-62
2024/04/11 11:23:13;;;;;;;0.35;0.32;;;;;;;-139.19;100.00;56970.53;5491686;26;19994;-62
2024/04/11 11:26:36;;;;;;;0.20;0.20;;;;;;;-139.19;100.00;56970.53;5491628;26;19994;-62
2024/04/11 11:30:05;;;;;;;0.40;0.30;;;;;;;-139.19;100.00;56970.53;5491530;26;20460;-62
2024/04/11 11:33:30;;;;;;;0.00;0.00;;;;;;;-139.19;100.00;56970.53;5491527;26;20004;-62
2024/04/11 11:36:59;;;;;;;0.10;0.10;;;;;;;-139.19;100.00;56970.53;5491470;26;19994;-61
2024/04/11 11:40:38;;;;;;;0.13;0.13;;;;;;;-139.19;100.00;56970.53;5491500;26;20434;-65
2024/04/11 11:44:01;;;;;;;0.40;0.40;;;;;;;-139.19;100.00;56970.53;5491373;26;20466;-65
2024/04/11 11:47:35;;;;;;;0.20;0.20;;;;;;;-139.19;100.00;56970.53;5491353;26;19994;-65
2024/04/11 11:51:05;;;;;;;0.10;0.10;;;;;;;-139.19;100.00;56970.53;5491328;26;20031;-65
2024/04/11 11:54:34;;;;;;;0.00;0.00;;;;;;;-139.19;100.00;56970.53;5490374;26;20462;-65
2024/04/11 11:58:03;;;;;;;0.10;0.10;;;;;;;-139.19;100.00;56970.53;5491047;26;19998;-64
2024/04/11 12:01:35;;;;;;;0.80;0.45;;;;;;;-139.19;100.00;56970.53;5490848;26;20366;-65
2024/04/11 12:05:02;;;;;;;0.43;0.30;;;;;;;-139.19;100.00;56970.53;5489638;26;20000;-65
2024/04/11 12:08:26;;;;;;;0.15;0.15;;;;;;;-139.19;100.00;56970.53;5490779;26;20337;-65
2024/04/11 12:11:53;;;;;;;0.00;0.00;;;;;;;-139.19;100.00;56970.53;5490681;26;19998;-65
2024/04/11 12:15:18;;;;;;;0.00;0.00;;;;;;;-139.19;100.00;56970.53;5490664;26;20002;-65
2024/04/11 12:18:42;;;;;;;0.00;0.00;;;;;;;-139.19;100.00;56970.53;5490646;26;20002;-65
2024/04/11 12:22:16;;;;;;;0.20;0.20;;;;;;;-139.19;100.00;56970.53;5490515;26;19998;-65
2024/04/11 12:25:41;;;;;;;1.23;0.43;;;;;;;-139.19;100.00;56970.53;5490497;26;20438;-65
2024/04/11 12:29:05;;;;;;;0.20;0.20;;;;;;;-139.19;100.00;56970.53;5490690;26;20000;-65
2024/04/11 12:32:30;;;;;;;0.20;0.20;;;;;;;-139.19;100.00;56970.53;5490387;26;20475;-64
2024/04/11 12:35:58;;;;;;;0.03;0.03;;;;;;;-139.19;100.00;56970.53;5490333;26;20010;-65
2024/04/11 12:39:32;;;;;;;0.20;0.20;;;;;;;-139.19;100.00;56970.53;5490285;26;20005;-64
2024/04/11 12:42:56;;;;;;;0.10;0.10;;;;;;;-139.19;100.00;56970.53;5490263;26;20506;-65
2024/04/11 12:46:22;;;;;;;0.05;0.05;;;;;;;-139.19;100.00;56970.53;5490206;26;19994;-65